createdAt,value
2017-08-06T00:00:42.050Z,2.63
2017-08-06T00:03:10.285Z,2.80
2017-08-06T00:05:37.761Z,2.50
2017-08-06T00:08:05.570Z,2.70
2017-08-06T00:10:33.046Z,2.10
2017-08-06T00:13:00.529Z,3.37
2017-08-06T00:15:28.029Z,2.60
2017-08-06T00:17:56.265Z,2.20
2017-08-06T00:20:23.737Z,2.50
2017-08-06T00:22:51.228Z,2.23
2017-08-06T00:25:18.697Z,2.20
2017-08-06T00:27:46.178Z,1.70
2017-08-06T00:30:13.669Z,2.20
2017-08-06T00:32:41.141Z,2.53
2017-08-06T00:35:09.377Z,2.80
2017-08-06T00:37:36.877Z,2.27
2017-08-06T00:40:04.520Z,3.20
2017-08-06T00:42:31.989Z,2.53
2017-08-06T00:45:00.245Z,3.00
2017-08-06T00:47:27.716Z,2.83
2017-08-06T00:49:55.956Z,3.33
2017-08-06T00:52:23.457Z,2.40
2017-08-06T00:54:51.978Z,3.07
2017-08-06T00:57:19.450Z,3.07
2017-08-06T00:59:46.942Z,2.20
2017-08-06T01:02:14.693Z,2.53
2017-08-06T01:04:42.161Z,3.17
2017-08-06T01:07:09.653Z,2.37
2017-08-06T01:09:37.124Z,3.03
2017-08-06T01:12:04.598Z,3.30
2017-08-06T01:14:32.184Z,2.63
2017-08-06T01:16:59.785Z,3.37
2017-08-06T01:19:27.341Z,3.30
2017-08-06T01:21:54.846Z,2.87
2017-08-06T01:24:22.317Z,3.37
2017-08-06T01:26:49.790Z,2.70
2017-08-06T01:29:18.049Z,3.00
2017-08-06T01:31:45.521Z,3.10
2017-08-06T01:34:13.757Z,2.70
2017-08-06T01:36:41.252Z,3.77
2017-08-06T01:39:09.489Z,3.53
2017-08-06T01:41:36.957Z,3.47
2017-08-06T01:44:04.456Z,2.90
2017-08-06T01:46:32.694Z,3.63
2017-08-06T01:49:00.165Z,3.40
2017-08-06T01:51:27.881Z,3.00
2017-08-06T01:53:55.393Z,3.80
2017-08-06T01:56:23.634Z,3.30
2017-08-06T01:58:51.434Z,3.37
2017-08-06T02:01:19.674Z,3.33
2017-08-06T02:03:47.145Z,2.60
2017-08-06T02:06:14.642Z,3.67
2017-08-06T02:08:42.434Z,3.40
2017-08-06T02:11:09.905Z,3.20
2017-08-06T02:13:37.398Z,2.37
2017-08-06T02:16:05.645Z,2.73
2017-08-06T02:18:33.122Z,2.77
2017-08-06T02:21:00.613Z,3.10
2017-08-06T02:23:28.086Z,2.97
2017-08-06T02:25:55.553Z,3.33
2017-08-06T02:28:23.049Z,3.07
2017-08-06T02:30:50.517Z,3.20
2017-08-06T02:33:18.758Z,3.20
2017-08-06T02:35:46.259Z,3.20
2017-08-06T02:38:14.498Z,3.10
2017-08-06T02:40:41.965Z,2.60
2017-08-06T02:43:09.461Z,3.60
2017-08-06T02:45:36.934Z,3.00
2017-08-06T02:48:04.405Z,2.23
2017-08-06T02:50:31.980Z,2.70
2017-08-06T02:52:59.450Z,2.80
2017-08-06T02:55:26.921Z,2.63
2017-08-06T02:57:54.427Z,4.47
2017-08-06T03:00:21.897Z,3.70
2017-08-06T03:02:49.365Z,2.60
2017-08-06T03:05:16.857Z,3.30
2017-08-06T03:07:45.093Z,2.80
2017-08-06T03:10:12.565Z,3.10
2017-08-06T03:12:40.060Z,2.93
2017-08-06T03:15:07.533Z,3.20
2017-08-06T03:17:35.005Z,3.30
2017-08-06T03:20:02.500Z,3.37
2017-08-06T03:22:30.010Z,3.00
2017-08-06T03:24:57.480Z,3.73
2017-08-06T03:27:24.969Z,3.10
2017-08-06T03:29:52.441Z,3.63
2017-08-06T03:32:20.681Z,3.53
2017-08-06T03:34:48.485Z,3.00
2017-08-06T03:37:16.728Z,2.90
2017-08-06T03:39:44.200Z,3.07
2017-08-06T03:42:11.701Z,2.70
2017-08-06T03:44:39.169Z,2.80
2017-08-06T03:47:06.641Z,2.70
2017-08-06T03:49:34.138Z,3.23
2017-08-06T03:52:01.617Z,2.90
2017-08-06T03:54:29.857Z,2.67
2017-08-06T03:56:57.365Z,2.80
2017-08-06T03:59:24.838Z,2.60
2017-08-06T04:01:52.605Z,3.50
2017-08-06T04:04:20.101Z,2.67
2017-08-06T04:06:47.573Z,2.77
2017-08-06T04:09:15.810Z,2.70
2017-08-06T04:11:43.313Z,2.50
2017-08-06T04:14:11.554Z,3.27
2017-08-06T04:16:39.021Z,3.00
2017-08-06T04:19:06.513Z,2.80
2017-08-06T04:21:34.015Z,2.40
2017-08-06T04:24:01.486Z,3.37
2017-08-06T04:26:29.016Z,4.30
2017-08-06T04:28:56.485Z,3.07
2017-08-06T04:31:23.956Z,2.93
2017-08-06T04:33:51.857Z,3.67
2017-08-06T04:36:20.094Z,2.90
2017-08-06T04:38:47.566Z,3.60
2017-08-06T04:41:15.062Z,2.70
2017-08-06T04:43:42.537Z,2.77
2017-08-06T04:46:10.013Z,2.80
2017-08-06T04:48:37.761Z,2.70
2017-08-06T04:51:05.233Z,3.17
2017-08-06T04:53:32.705Z,2.70
2017-08-06T04:56:00.198Z,3.83
2017-08-06T04:58:27.670Z,3.53
2017-08-06T05:00:55.141Z,2.73
2017-08-06T05:03:22.946Z,3.50
2017-08-06T05:05:50.418Z,3.77
2017-08-06T05:08:17.889Z,3.60
2017-08-06T05:10:46.157Z,3.57
2017-08-06T05:13:13.645Z,3.23
2017-08-06T05:15:41.117Z,2.73
2017-08-06T05:18:08.610Z,3.50
2017-08-06T05:20:36.081Z,4.03
2017-08-06T05:23:03.558Z,3.23
2017-08-06T05:25:31.813Z,2.80
2017-08-06T05:27:59.289Z,3.50
2017-08-06T05:30:27.525Z,3.30
2017-08-06T05:32:55.028Z,3.07
2017-08-06T05:35:22.521Z,2.97
2017-08-06T05:37:50.210Z,3.03
2017-08-06T05:40:17.709Z,2.47
2017-08-06T05:42:45.182Z,2.57
2017-08-06T05:45:12.654Z,2.90
2017-08-06T05:47:40.145Z,2.57
2017-08-06T05:50:07.617Z,2.40
2017-08-06T05:52:35.091Z,3.33
2017-08-06T05:55:02.581Z,2.77
2017-08-06T05:57:30.058Z,3.23
2017-08-06T05:59:57.529Z,2.30
2017-08-06T06:02:25.029Z,2.90
2017-08-06T06:04:52.809Z,3.20
2017-08-06T06:07:20.285Z,3.17
2017-08-06T06:09:47.785Z,2.20
2017-08-06T06:12:16.022Z,1.80
2017-08-06T06:14:43.490Z,2.57
2017-08-06T06:17:11.085Z,2.20
2017-08-06T06:19:39.316Z,2.50
2017-08-06T06:22:06.786Z,3.47
2017-08-06T06:24:34.277Z,2.43
2017-08-06T06:27:02.069Z,2.40
2017-08-06T06:29:29.541Z,2.40
2017-08-06T06:31:57.041Z,2.67
2017-08-06T06:34:24.541Z,2.40
2017-08-06T06:36:52.030Z,2.70
2017-08-06T06:39:19.866Z,2.13
2017-08-06T06:41:47.341Z,2.33
2017-08-06T06:44:14.812Z,2.60
2017-08-06T06:46:42.310Z,2.90
2017-08-06T06:49:09.782Z,2.90
2017-08-06T06:51:37.473Z,2.63
2017-08-06T06:54:04.966Z,2.50
2017-08-06T06:56:33.205Z,2.37
2017-08-06T06:59:00.682Z,2.80
2017-08-06T07:01:28.173Z,1.90
2017-08-06T07:03:55.645Z,2.23
2017-08-06T07:06:23.121Z,2.20
2017-08-06T07:08:50.625Z,2.40
2017-08-06T07:11:18.105Z,2.90
2017-08-06T07:13:45.581Z,2.60
2017-08-06T07:16:13.078Z,2.87
2017-08-06T07:18:40.546Z,2.20
2017-08-06T07:21:08.017Z,2.30
2017-08-06T07:23:36.278Z,2.33
2017-08-06T07:26:03.750Z,2.87
2017-08-06T07:28:31.993Z,2.57
2017-08-06T07:30:59.485Z,2.60
2017-08-06T07:33:27.721Z,2.30
2017-08-06T07:35:55.194Z,2.43
2017-08-06T07:38:23.073Z,3.57
2017-08-06T07:40:50.545Z,2.90
2017-08-06T07:43:18.018Z,2.40
2017-08-06T07:45:45.805Z,2.10
2017-08-06T07:48:13.277Z,2.93
2017-08-06T07:50:40.748Z,2.50
2017-08-06T07:53:08.241Z,2.10
2017-08-06T07:55:36.481Z,2.93
2017-08-06T07:58:03.956Z,2.50
2017-08-06T08:00:32.218Z,2.20
2017-08-06T08:02:59.685Z,2.23
2017-08-06T08:05:27.156Z,2.40
2017-08-06T08:07:55.464Z,1.60
2017-08-06T08:10:22.937Z,2.00
2017-08-06T08:12:50.404Z,1.60
2017-08-06T08:15:17.899Z,1.80
2017-08-06T08:17:46.526Z,1.93
2017-08-06T08:20:13.997Z,2.00
2017-08-06T08:22:41.493Z,2.20
2017-08-06T08:25:09.161Z,1.70
2017-08-06T08:27:37.426Z,2.37
2017-08-06T08:30:04.921Z,2.10
2017-08-06T08:32:32.396Z,2.17
2017-08-06T08:34:59.877Z,1.80
2017-08-06T08:37:27.373Z,2.50
2017-08-06T08:39:55.612Z,1.40
2017-08-06T08:42:23.081Z,1.67
2017-08-06T08:44:50.621Z,1.63
2017-08-06T08:47:18.093Z,1.80
2017-08-06T08:49:45.569Z,2.20
2017-08-06T08:52:13.842Z,1.60
2017-08-06T08:54:42.082Z,1.00
2017-08-06T08:57:09.559Z,1.93
2017-08-06T08:59:37.054Z,1.70
2017-08-06T09:02:04.527Z,1.57
2017-08-06T09:04:31.998Z,1.90
2017-08-06T09:06:59.504Z,1.13
2017-08-06T09:09:27.741Z,1.23
2017-08-06T09:11:55.213Z,1.70
2017-08-06T09:14:22.945Z,2.70
2017-08-06T09:16:50.705Z,2.20
2017-08-06T09:19:18.186Z,2.40
2017-08-06T09:21:45.684Z,2.53
2017-08-06T09:24:13.921Z,1.60
2017-08-06T09:26:41.394Z,1.10
2017-08-06T09:29:08.881Z,1.50
2017-08-06T09:31:37.113Z,2.23
2017-08-06T09:34:04.586Z,1.60
2017-08-06T09:36:32.089Z,2.03
2017-08-06T09:38:59.560Z,1.50
2017-08-06T09:41:27.038Z,2.53
2017-08-06T09:43:54.530Z,1.70
2017-08-06T09:46:22.768Z,1.60
2017-08-06T09:48:50.238Z,2.43
2017-08-06T09:51:18.125Z,1.57
2017-08-06T09:53:46.370Z,1.80
2017-08-06T09:56:13.841Z,1.40
2017-08-06T09:58:41.333Z,1.67
2017-08-06T10:01:08.822Z,1.43
2017-08-06T10:03:36.294Z,1.57
2017-08-06T10:06:03.794Z,1.57
2017-08-06T10:08:32.033Z,1.30
2017-08-06T10:10:59.505Z,1.50
2017-08-06T10:13:27.001Z,1.47
2017-08-06T10:15:54.474Z,1.20
2017-08-06T10:18:22.164Z,1.40
2017-08-06T10:20:49.652Z,3.97
2017-08-06T10:23:17.899Z,3.00
2017-08-06T10:25:45.637Z,1.53
2017-08-06T10:28:13.131Z,1.93
2017-08-06T10:30:40.601Z,1.37
2017-08-06T10:33:08.074Z,1.33
2017-08-06T10:35:35.577Z,1.20
2017-08-06T10:38:03.045Z,2.30
2017-08-06T10:40:30.512Z,2.33
2017-08-06T10:42:58.001Z,1.73
2017-08-06T10:45:25.477Z,1.07
2017-08-06T10:47:52.973Z,1.13
2017-08-06T10:50:20.465Z,1.33
2017-08-06T10:52:47.941Z,1.23
2017-08-06T10:55:15.415Z,1.40
2017-08-06T10:57:42.909Z,1.53
2017-08-06T11:00:10.388Z,1.00
2017-08-06T11:02:38.917Z,1.30
2017-08-06T11:05:06.405Z,1.50
2017-08-06T11:07:33.909Z,1.60
2017-08-06T11:10:01.414Z,1.80
2017-08-06T11:12:28.946Z,1.20
2017-08-06T11:14:56.454Z,1.63
2017-08-06T11:17:23.960Z,1.93
2017-08-06T11:19:51.453Z,1.60
2017-08-06T11:22:18.921Z,1.63
2017-08-06T11:24:46.490Z,1.60
2017-08-06T11:27:14.758Z,1.37
2017-08-06T11:29:42.232Z,1.57
2017-08-06T11:32:10.752Z,1.23
2017-08-06T11:34:38.245Z,1.20
2017-08-06T11:37:05.713Z,1.77
2017-08-06T11:39:33.182Z,1.60
2017-08-06T11:42:01.445Z,1.30
2017-08-06T11:44:28.921Z,1.20
2017-08-06T11:46:57.165Z,1.43
2017-08-06T11:49:24.661Z,1.97
2017-08-06T11:51:52.133Z,1.67
2017-08-06T11:54:19.606Z,2.40
2017-08-06T11:56:47.097Z,2.53
2017-08-06T11:59:14.566Z,1.80
2017-08-06T12:01:42.037Z,2.23
2017-08-06T12:04:09.545Z,2.93
2017-08-06T12:06:37.016Z,1.80
2017-08-06T12:09:04.485Z,2.70
2017-08-06T12:11:31.981Z,1.23
2017-08-06T12:13:59.449Z,2.07
2017-08-06T12:16:26.917Z,1.77
2017-08-06T12:18:54.409Z,1.70
2017-08-06T12:21:21.882Z,2.70
2017-08-06T12:23:50.122Z,1.50
2017-08-06T12:26:17.868Z,1.93
2017-08-06T12:28:45.340Z,1.37
2017-08-06T12:31:12.817Z,1.50
2017-08-06T12:33:40.322Z,1.23
2017-08-06T12:36:07.804Z,1.30
2017-08-06T12:38:35.272Z,1.50
2017-08-06T12:41:02.766Z,1.50
2017-08-06T12:43:31.001Z,1.80
2017-08-06T12:45:58.473Z,1.53
2017-08-06T12:48:26.024Z,1.33
2017-08-06T12:50:53.518Z,1.20
2017-08-06T12:53:21.752Z,1.27
2017-08-06T12:55:49.268Z,1.43
2017-08-06T12:58:16.742Z,1.40
2017-08-06T13:00:44.213Z,1.20
2017-08-06T13:03:11.705Z,1.10
2017-08-06T13:05:39.177Z,1.37
2017-08-06T13:08:07.361Z,1.47
2017-08-06T13:10:34.893Z,1.10
2017-08-06T13:13:02.368Z,1.57
2017-08-06T13:15:29.838Z,1.53
2017-08-06T13:17:57.334Z,1.43
2017-08-06T13:20:25.649Z,1.60
2017-08-06T13:22:53.118Z,1.30
2017-08-06T13:25:20.981Z,1.60
2017-08-06T13:27:49.221Z,1.47
2017-08-06T13:30:16.697Z,1.83
2017-08-06T13:32:44.189Z,1.27
2017-08-06T13:35:11.657Z,1.37
2017-08-06T13:37:39.126Z,1.57
2017-08-06T13:40:06.629Z,1.77
2017-08-06T13:42:34.101Z,1.70
2017-08-06T13:45:01.575Z,1.27
2017-08-06T13:47:29.076Z,1.63
2017-08-06T13:49:56.544Z,1.10
2017-08-06T13:52:24.229Z,1.70
2017-08-06T13:54:52.538Z,2.07
2017-08-06T13:57:20.017Z,2.10
2017-08-06T13:59:47.498Z,1.60
2017-08-06T14:02:15.005Z,1.60
2017-08-06T14:04:42.478Z,1.60
2017-08-06T14:07:09.952Z,1.60
2017-08-06T14:09:37.464Z,1.67
2017-08-06T14:12:05.701Z,1.33
2017-08-06T14:14:33.173Z,1.60
2017-08-06T14:17:00.665Z,1.50
2017-08-06T14:19:28.178Z,1.57
2017-08-06T14:21:55.669Z,1.70
2017-08-06T14:24:23.174Z,1.53
2017-08-06T14:26:50.645Z,2.47
2017-08-06T14:29:18.117Z,1.63
2017-08-06T14:31:45.778Z,1.77
2017-08-06T14:34:13.245Z,2.00
2017-08-06T14:36:41.486Z,1.73
2017-08-06T14:39:09.074Z,1.80
2017-08-06T14:41:36.549Z,1.40
2017-08-06T14:44:04.786Z,1.47
2017-08-06T14:46:32.383Z,1.20
2017-08-06T14:48:59.890Z,1.50
2017-08-06T14:51:27.366Z,1.70
2017-08-06T14:53:54.869Z,2.00
2017-08-06T14:56:22.354Z,1.90
2017-08-06T14:58:49.833Z,1.50
2017-08-06T15:01:17.325Z,1.70
2017-08-06T15:03:45.561Z,1.73
2017-08-06T15:06:13.035Z,1.90
2017-08-06T15:08:40.619Z,1.70
2017-08-06T15:11:08.140Z,2.03
2017-08-06T15:13:35.681Z,2.30
2017-08-06T15:16:03.206Z,1.63
2017-08-06T15:18:30.722Z,1.67
2017-08-06T15:20:58.225Z,1.50
2017-08-06T15:23:25.748Z,1.80
2017-08-06T15:25:53.225Z,2.70
2017-08-06T15:28:21.521Z,2.70
2017-08-06T15:30:49.388Z,2.40
2017-08-06T15:33:16.872Z,1.73
2017-08-06T15:35:45.182Z,1.53
2017-08-06T15:38:12.977Z,2.03
2017-08-06T15:40:40.473Z,2.00
2017-08-06T15:43:07.941Z,3.00
2017-08-06T15:45:35.433Z,1.77
2017-08-06T15:48:03.685Z,3.50
2017-08-06T15:50:31.509Z,1.83
2017-08-06T15:52:59.002Z,2.20
2017-08-06T15:55:26.486Z,2.63
2017-08-06T15:57:54.725Z,1.70
2017-08-06T16:00:22.220Z,3.03
2017-08-06T16:02:50.556Z,2.43
2017-08-06T16:05:18.036Z,2.43
2017-08-06T16:07:45.562Z,1.90
2017-08-06T16:10:13.113Z,1.53
2017-08-06T16:12:40.617Z,2.40
2017-08-06T16:15:08.882Z,1.80
2017-08-06T16:17:36.509Z,1.97
2017-08-06T16:20:04.337Z,2.10
2017-08-06T16:22:32.957Z,2.20
2017-08-06T16:25:00.498Z,2.00
2017-08-06T16:27:28.013Z,2.53
2017-08-06T16:29:55.557Z,2.00
2017-08-06T16:32:23.056Z,2.00
2017-08-06T16:34:50.567Z,2.20
2017-08-06T16:37:18.090Z,1.83
2017-08-06T16:39:45.714Z,1.90
2017-08-06T16:42:13.290Z,2.00
2017-08-06T16:44:41.625Z,2.17
2017-08-06T16:47:09.847Z,2.00
2017-08-06T16:49:37.360Z,1.93
2017-08-06T16:52:04.905Z,2.10
2017-08-06T16:54:32.593Z,2.00
2017-08-06T16:57:00.910Z,1.93
2017-08-06T16:59:28.506Z,1.80
2017-08-06T17:01:56.063Z,2.00
2017-08-06T17:04:23.598Z,1.60
2017-08-06T17:06:51.114Z,1.70
2017-08-06T17:09:19.638Z,1.90
2017-08-06T17:11:47.147Z,2.50
2017-08-06T17:14:14.671Z,1.47
2017-08-06T17:16:42.295Z,1.63
2017-08-06T17:19:10.196Z,1.90
2017-08-06T17:21:37.725Z,1.60
2017-08-06T17:24:05.207Z,1.37
2017-08-06T17:26:32.694Z,1.80
2017-08-06T17:29:00.202Z,2.07
2017-08-06T17:31:27.686Z,1.70
2017-08-06T17:33:55.164Z,2.23
2017-08-06T17:36:22.658Z,2.57
2017-08-06T17:38:50.918Z,1.70
2017-08-06T17:41:18.414Z,1.63
2017-08-06T17:43:45.905Z,2.00
2017-08-06T17:46:13.377Z,2.20
2017-08-06T17:48:41.101Z,2.30
2017-08-06T17:51:08.590Z,2.40
2017-08-06T17:53:36.073Z,2.07
2017-08-06T17:56:04.321Z,2.00
2017-08-06T17:58:31.821Z,2.47
2017-08-06T18:00:59.302Z,1.90
2017-08-06T18:03:26.782Z,2.13
2017-08-06T18:05:54.277Z,2.43
2017-08-06T18:08:22.518Z,2.40
2017-08-06T18:10:50.000Z,2.50
2017-08-06T18:13:17.489Z,1.90
2017-08-06T18:15:44.958Z,1.70
2017-08-06T18:18:12.463Z,2.43
2017-08-06T18:20:39.961Z,2.17
2017-08-06T18:23:07.430Z,2.13
2017-08-06T18:25:34.904Z,1.60
2017-08-06T18:28:02.401Z,2.20
2017-08-06T18:30:30.186Z,2.30
2017-08-06T18:32:58.425Z,2.97
2017-08-06T18:35:25.916Z,5.20
2017-08-06T18:37:53.507Z,3.53
2017-08-06T18:40:20.989Z,4.90
2017-08-06T18:42:48.487Z,2.83
2017-08-06T18:45:16.725Z,2.33
2017-08-06T18:47:44.202Z,2.60
2017-08-06T18:50:11.715Z,2.47
2017-08-06T18:52:39.238Z,3.03
2017-08-06T18:55:07.777Z,2.23
2017-08-06T18:57:35.340Z,2.87
2017-08-06T19:00:02.975Z,2.07
2017-08-06T19:02:30.585Z,2.37
2017-08-06T19:04:58.916Z,2.80
2017-08-06T19:07:26.444Z,4.83
2017-08-06T19:09:53.987Z,5.60
2017-08-06T19:12:21.574Z,11.10
2017-08-06T19:14:49.147Z,10.97
2017-08-06T19:17:16.910Z,4.30
2017-08-06T19:19:45.437Z,7.53
2017-08-06T19:22:14.870Z,3.60
2017-08-06T19:24:42.504Z,3.80
2017-08-06T19:27:11.617Z,2.40
2017-08-06T19:29:39.292Z,3.90
2017-08-06T19:32:07.753Z,3.33
2017-08-06T19:34:35.323Z,3.03
2017-08-06T19:37:03.181Z,2.57
2017-08-06T19:39:31.717Z,2.53
2017-08-06T19:41:59.456Z,3.63
2017-08-06T19:44:27.074Z,3.80
2017-08-06T19:46:54.586Z,3.70
2017-08-06T19:49:22.621Z,3.23
2017-08-06T19:51:50.889Z,3.60
2017-08-06T19:54:19.745Z,4.57
2017-08-06T19:56:47.373Z,3.30
2017-08-06T19:59:14.865Z,3.60
2017-08-06T20:01:42.337Z,3.83
2017-08-06T20:04:09.883Z,4.33
2017-08-06T20:06:38.303Z,3.23
2017-08-06T20:09:05.808Z,6.90
2017-08-06T20:11:34.172Z,5.60
2017-08-06T20:14:01.909Z,7.07
2017-08-06T20:16:29.458Z,8.53
2017-08-06T20:18:56.961Z,7.70
2017-08-06T20:21:24.431Z,8.07
2017-08-06T20:23:51.901Z,6.30
2017-08-06T20:26:19.397Z,5.33
2017-08-06T20:28:46.869Z,3.60
2017-08-06T20:31:14.349Z,3.53
2017-08-06T20:33:41.851Z,3.10
2017-08-06T20:36:10.085Z,4.47
2017-08-06T20:38:37.557Z,3.83
2017-08-06T20:41:05.053Z,2.83
2017-08-06T20:43:32.530Z,3.80
2017-08-06T20:46:00.005Z,3.67
2017-08-06T20:48:27.494Z,2.90
2017-08-06T20:50:54.970Z,3.53
2017-08-06T20:53:23.244Z,3.80
2017-08-06T20:55:51.505Z,3.53
2017-08-06T20:58:19.014Z,3.67
2017-08-06T21:00:46.486Z,3.50
2017-08-06T21:03:13.982Z,3.60
2017-08-06T21:05:42.221Z,4.40
2017-08-06T21:08:09.701Z,3.53
2017-08-06T21:10:37.206Z,3.40
2017-08-06T21:13:04.682Z,3.73
2017-08-06T21:15:32.153Z,2.93
2017-08-06T21:17:59.649Z,3.90
2017-08-06T21:20:27.891Z,3.67
2017-08-06T21:22:55.366Z,3.53
2017-08-06T21:25:22.860Z,3.17
2017-08-06T21:27:50.434Z,2.97
2017-08-06T21:30:17.909Z,3.37
2017-08-06T21:32:45.401Z,3.63
2017-08-06T21:35:12.869Z,4.00
2017-08-06T21:37:41.113Z,4.60
2017-08-06T21:40:08.613Z,3.43
2017-08-06T21:42:36.086Z,4.37
2017-08-06T21:45:03.560Z,3.57
2017-08-06T21:47:31.062Z,4.70
2017-08-06T21:49:58.545Z,5.77
2017-08-06T21:52:26.028Z,4.40
2017-08-06T21:54:53.561Z,5.03
2017-08-06T21:57:21.071Z,4.77
2017-08-06T21:59:48.545Z,3.60
2017-08-06T22:02:20.011Z,4.43
2017-08-06T22:04:48.282Z,4.57
2017-08-06T22:07:16.599Z,4.63
2017-08-06T22:09:44.130Z,4.97
2017-08-06T22:12:12.406Z,5.10
2017-08-06T22:14:39.886Z,3.70
2017-08-06T22:17:07.382Z,4.10
2017-08-06T22:19:34.856Z,4.10
2017-08-06T22:22:02.325Z,4.37
2017-08-06T22:24:30.599Z,3.70
2017-08-06T22:26:58.879Z,4.60
2017-08-06T22:29:27.153Z,4.13
2017-08-06T22:31:55.447Z,4.63
2017-08-06T22:34:22.950Z,4.57
2017-08-06T22:36:50.460Z,5.30
2017-08-06T22:39:17.973Z,4.07
2017-08-06T22:41:45.445Z,4.57
2017-08-06T22:44:12.920Z,4.40
2017-08-06T22:46:41.178Z,4.80
2017-08-06T22:49:09.421Z,4.57
2017-08-06T22:51:36.897Z,4.67
2017-08-06T22:54:04.396Z,4.63
2017-08-06T22:56:31.869Z,4.10
2017-08-06T22:58:59.337Z,3.97
2017-08-06T23:01:26.834Z,4.93
2017-08-06T23:03:54.306Z,5.07
2017-08-06T23:06:22.538Z,5.50
2017-08-06T23:08:50.033Z,4.20
2017-08-06T23:11:17.506Z,4.53
2017-08-06T23:13:45.745Z,4.33
2017-08-06T23:16:13.237Z,5.40
2017-08-06T23:18:41.472Z,4.03
2017-08-06T23:21:08.945Z,5.20
2017-08-06T23:23:36.451Z,4.77
2017-08-06T23:26:03.921Z,5.37
2017-08-06T23:28:31.393Z,4.90
2017-08-06T23:30:58.891Z,4.87
2017-08-06T23:33:27.130Z,5.00
2017-08-06T23:35:54.601Z,5.03
2017-08-06T23:38:22.093Z,4.90
2017-08-06T23:40:49.574Z,4.50
2017-08-06T23:43:17.058Z,5.00
2017-08-06T23:45:44.553Z,4.10
2017-08-06T23:48:12.793Z,5.50
2017-08-06T23:50:40.435Z,6.20
2017-08-06T23:53:07.933Z,4.30
2017-08-06T23:55:35.406Z,3.90
2017-08-06T23:58:03.646Z,3.70
